createdAt,value
2019-03-27T00:01:15.805Z,79038.84
2019-03-27T00:06:28.857Z,79051.83
2019-03-27T00:11:41.560Z,79082.80
2019-03-27T00:16:56.379Z,79096.78
2019-03-27T00:22:26.220Z,79116.77
2019-03-27T00:27:43.718Z,79132.75
2019-03-27T00:32:57.565Z,79147.73
2019-03-27T00:38:15.557Z,79154.73
2019-03-27T00:44:03.333Z,79163.72
2019-03-27T00:49:18.626Z,79172.70
2019-03-27T00:54:40.403Z,79182.70
2019-03-27T01:00:01.678Z,79198.69
2019-03-27T01:05:37.413Z,79203.67
2019-03-27T01:10:50.239Z,79210.67
2019-03-27T01:16:08.353Z,79218.66
2019-03-27T01:21:22.141Z,79222.66
2019-03-27T01:26:41.002Z,79228.66
2019-03-27T01:32:03.333Z,79226.66
2019-03-27T01:37:23.385Z,79212.67
2019-03-27T01:42:47.277Z,79196.69
2019-03-27T01:48:01.062Z,79192.69
2019-03-27T01:53:16.007Z,79186.70
2019-03-27T01:58:34.146Z,79188.70
2019-03-27T02:03:49.099Z,79186.70
2019-03-27T02:09:13.568Z,79203.67
2019-03-27T02:14:30.764Z,79194.69
2019-03-27T02:19:38.255Z,79192.69
2019-03-27T02:24:55.774Z,79187.70
2019-03-27T02:30:11.983Z,79206.67
2019-03-27T02:35:20.222Z,79216.66
2019-03-27T02:40:32.208Z,79212.67
2019-03-27T02:45:49.536Z,79213.67
2019-03-27T02:51:05.151Z,79214.66
2019-03-27T02:56:20.070Z,79209.67
2019-03-27T03:01:35.198Z,79200.69
2019-03-27T03:06:46.728Z,79191.69
2019-03-27T03:12:03.850Z,79184.70
2019-03-27T03:17:16.942Z,79185.70
2019-03-27T03:22:36.035Z,79197.69
2019-03-27T03:27:58.294Z,79188.70
2019-03-27T03:33:10.181Z,79191.69
2019-03-27T03:38:28.543Z,79196.69
2019-03-27T03:43:45.074Z,79193.69
2019-03-27T03:49:03.175Z,79196.69
2019-03-27T03:54:19.434Z,79194.69
2019-03-27T03:59:44.369Z,79196.69
2019-03-27T04:05:04.282Z,79203.67
2019-03-27T04:10:15.991Z,79216.66
2019-03-27T04:21:00.769Z,79226.66
2019-03-27T04:26:16.204Z,79242.64
2019-03-27T04:31:27.954Z,79250.63
2019-03-27T04:36:46.893Z,79255.63
2019-03-27T04:41:59.360Z,79248.63
2019-03-27T04:47:31.205Z,79254.63
2019-03-27T04:52:37.719Z,79249.63
2019-03-27T04:57:59.909Z,79265.62
2019-03-27T05:03:14.343Z,79274.61
2019-03-27T05:08:36.231Z,79288.59
2019-03-27T05:13:47.228Z,79302.58
2019-03-27T05:19:09.345Z,79320.56
2019-03-27T05:24:27.943Z,79334.55
2019-03-27T05:29:41.998Z,79334.55
2019-03-27T05:34:50.489Z,79336.55
2019-03-27T05:40:03.639Z,79344.54
2019-03-27T05:45:19.113Z,79349.53
2019-03-27T05:50:37.379Z,79348.53
2019-03-27T05:55:51.883Z,79351.53
2019-03-27T06:01:05.701Z,79344.54
2019-03-27T06:06:25.012Z,79357.53
2019-03-27T06:12:07.606Z,79357.53
2019-03-27T06:17:16.255Z,79365.52
2019-03-27T06:22:47.816Z,79346.54
2019-03-27T06:28:00.771Z,79357.53
2019-03-27T06:33:19.410Z,79361.52
2019-03-27T06:38:32.681Z,79359.53
2019-03-27T06:43:50.136Z,79348.53
2019-03-27T06:54:49.290Z,79341.55
2019-03-27T07:00:10.733Z,79324.56
2019-03-27T07:11:34.673Z,79305.58
2019-03-27T07:16:53.751Z,79295.59
2019-03-27T07:22:42.194Z,79280.60
2019-03-27T07:28:27.732Z,79261.63
2019-03-27T07:33:51.098Z,79228.66
2019-03-27T07:39:11.325Z,79194.69
2019-03-27T07:44:23.097Z,79163.72
2019-03-27T07:49:42.137Z,79134.75
2019-03-27T07:55:19.588Z,79099.78
2019-03-27T08:00:40.538Z,79085.80
2019-03-27T08:06:13.006Z,79058.83
2019-03-27T08:11:27.260Z,79022.86
2019-03-27T08:16:49.203Z,78986.90
2019-03-27T08:22:02.908Z,78981.91
2019-03-27T08:27:14.639Z,78948.94
2019-03-27T08:32:54.687Z,78916.97
2019-03-27T08:38:15.127Z,78880.02
2019-03-27T08:43:35.525Z,78856.04
2019-03-27T08:49:06.213Z,78803.09
2019-03-27T08:54:16.191Z,78767.13
2019-03-27T08:59:32.793Z,78707.20
2019-03-27T09:04:56.174Z,78659.25
2019-03-27T09:10:10.631Z,78659.25
2019-03-27T09:15:22.117Z,78695.22
2019-03-27T09:21:18.932Z,78641.27
2019-03-27T09:26:32.579Z,78616.30
2019-03-27T09:31:45.902Z,78637.28
2019-03-27T09:37:05.031Z,78649.27
2019-03-27T09:42:21.560Z,78627.29
2019-03-27T09:47:35.423Z,78552.38
2019-03-27T09:53:10.724Z,78561.37
2019-03-27T09:58:22.540Z,78666.25
2019-03-27T10:03:34.044Z,78525.41
2019-03-27T10:08:52.375Z,78325.64
2019-03-27T10:14:47.553Z,78369.59
2019-03-27T10:20:04.450Z,78425.52
2019-03-27T10:25:19.277Z,78351.61
2019-03-27T10:30:34.761Z,78035.00
2019-03-27T10:35:54.572Z,77742.39
2019-03-27T10:41:19.848Z,77915.16
2019-03-27T10:46:41.529Z,77948.12
2019-03-27T10:52:06.574Z,78036.00
2019-03-27T10:57:19.462Z,78165.84
2019-03-27T11:02:37.546Z,77762.36
2019-03-27T11:07:49.157Z,77770.36
2019-03-27T11:13:09.156Z,78040.00
2019-03-27T11:18:23.583Z,78100.92
2019-03-27T11:23:37.856Z,77752.38
2019-03-27T11:28:54.200Z,77423.84
2019-03-27T11:34:07.032Z,77137.26
2019-03-27T11:39:20.988Z,77306.01
2019-03-27T11:44:49.294Z,77575.63
2019-03-27T11:50:03.479Z,77748.38
2019-03-27T11:55:16.878Z,77565.64
2019-03-27T12:00:34.673Z,77746.39
2019-03-27T12:05:47.716Z,77910.17
2019-03-27T12:11:04.630Z,77815.30
2019-03-27T12:16:24.162Z,77990.06
2019-03-27T12:21:44.245Z,78136.88
2019-03-27T12:27:04.064Z,78257.73
2019-03-27T12:32:20.674Z,78264.72
2019-03-27T12:43:07.506Z,78081.95
2019-03-27T12:48:31.466Z,78175.83
2019-03-27T12:53:50.400Z,78275.70
2019-03-27T12:59:07.395Z,78272.70
2019-03-27T13:04:20.671Z,78298.67
2019-03-27T13:09:33.994Z,78276.70
2019-03-27T13:14:54.251Z,78117.90
2019-03-27T13:20:16.137Z,77867.22
2019-03-27T13:25:31.455Z,77634.54
2019-03-27T13:30:43.531Z,77768.36
2019-03-27T13:35:55.155Z,77880.20
2019-03-27T13:41:11.105Z,77992.06
2019-03-27T13:46:29.953Z,77990.06
2019-03-27T13:51:53.744Z,78094.93
2019-03-27T13:57:35.651Z,78091.94
2019-03-27T14:02:55.149Z,78104.92
2019-03-27T14:08:07.574Z,78173.83
2019-03-27T14:13:20.832Z,78149.86
2019-03-27T14:18:53.702Z,78171.83
2019-03-27T14:24:25.789Z,78256.73
2019-03-27T14:29:42.512Z,78256.73
2019-03-27T14:35:20.642Z,78274.70
2019-03-27T14:40:33.259Z,78184.81
2019-03-27T14:45:55.172Z,78076.95
2019-03-27T14:51:18.508Z,78021.02
2019-03-27T14:56:54.847Z,77997.05
2019-03-27T15:02:11.264Z,78095.93
2019-03-27T15:07:23.279Z,78172.83
2019-03-27T15:12:43.031Z,78239.75
2019-03-27T15:17:56.914Z,78186.81
2019-03-27T15:23:04.123Z,78265.72
2019-03-27T15:28:19.111Z,78275.70
2019-03-27T15:33:35.899Z,78262.72
2019-03-27T15:38:48.620Z,78247.73
2019-03-27T15:44:11.956Z,78255.73
2019-03-27T15:49:43.690Z,78244.74
2019-03-27T15:55:00.963Z,78227.77
2019-03-27T16:00:16.583Z,78207.79
2019-03-27T16:05:40.316Z,78197.80
2019-03-27T16:11:10.816Z,78197.80
2019-03-27T16:16:27.907Z,78212.78
2019-03-27T16:21:43.518Z,78211.78
2019-03-27T16:27:05.045Z,78239.75
2019-03-27T16:32:27.744Z,78244.74
2019-03-27T16:38:10.442Z,78253.73
2019-03-27T16:43:24.264Z,78271.71
2019-03-27T16:48:40.689Z,78289.69
2019-03-27T16:53:58.573Z,78301.67
2019-03-27T16:59:16.477Z,78324.64
2019-03-27T17:04:33.255Z,78345.63
2019-03-27T17:09:48.649Z,78339.63
2019-03-27T17:15:10.299Z,78352.61
2019-03-27T17:20:23.022Z,78353.61
2019-03-27T17:25:31.522Z,78351.61
2019-03-27T17:30:46.816Z,78359.60
2019-03-27T17:35:58.116Z,78381.58
2019-03-27T17:41:09.762Z,78387.57
2019-03-27T17:46:26.718Z,78402.55
2019-03-27T17:51:37.205Z,78435.52
2019-03-27T17:57:05.014Z,78455.48
2019-03-27T18:02:28.505Z,78475.47
2019-03-27T18:07:43.714Z,78503.44
2019-03-27T18:13:19.461Z,78478.46
2019-03-27T18:18:41.032Z,78481.45
2019-03-27T18:24:11.519Z,78484.45
2019-03-27T18:29:33.308Z,78496.44
2019-03-27T18:35:04.732Z,78510.42
2019-03-27T18:40:19.321Z,78522.41
2019-03-27T18:45:32.779Z,78532.40
2019-03-27T18:50:56.108Z,78534.39
2019-03-27T18:56:15.974Z,78538.39
2019-03-27T19:01:26.363Z,78543.39
2019-03-27T19:06:39.324Z,78553.38
2019-03-27T19:12:04.128Z,78554.38
2019-03-27T19:17:15.550Z,78571.36
2019-03-27T19:22:27.170Z,78574.35
2019-03-27T19:27:38.120Z,78577.34
2019-03-27T19:32:57.210Z,78579.34
2019-03-27T19:38:12.536Z,78581.34
2019-03-27T19:43:28.534Z,78602.32
2019-03-27T19:48:48.348Z,78610.31
2019-03-27T19:54:00.119Z,78617.30
2019-03-27T19:59:17.772Z,78625.30
2019-03-27T20:04:36.210Z,78635.28
2019-03-27T20:10:15.588Z,78635.28
2019-03-27T20:15:29.292Z,78645.27
2019-03-27T20:21:17.788Z,78653.27
2019-03-27T20:26:50.763Z,78653.27
2019-03-27T20:32:10.998Z,78653.27
2019-03-27T20:37:28.030Z,78663.25
2019-03-27T20:42:40.266Z,78666.25
2019-03-27T20:47:53.598Z,78683.23
2019-03-27T20:53:04.125Z,78686.22
2019-03-27T20:58:17.099Z,78694.22
2019-03-27T21:03:34.857Z,78703.20
2019-03-27T21:08:51.770Z,78705.20
2019-03-27T21:13:58.739Z,78709.20
2019-03-27T21:19:12.397Z,78713.19
2019-03-27T21:24:20.867Z,78719.19
2019-03-27T21:29:31.306Z,78729.17
2019-03-27T21:34:44.529Z,78729.17
2019-03-27T21:39:56.203Z,78737.17
2019-03-27T21:45:10.782Z,78753.15
2019-03-27T21:50:22.958Z,78761.14
2019-03-27T21:55:42.930Z,78762.14
2019-03-27T22:01:00.783Z,78762.14
2019-03-27T22:06:14.272Z,78781.12
2019-03-27T22:11:24.599Z,78781.12
2019-03-27T22:16:38.906Z,78780.13
2019-03-27T22:21:54.270Z,78781.12
2019-03-27T22:27:07.795Z,78780.13
2019-03-27T22:32:22.122Z,78786.11
2019-03-27T22:37:40.855Z,78797.10
2019-03-27T22:42:56.814Z,78799.10
2019-03-27T22:48:17.482Z,78797.10
2019-03-27T22:53:45.948Z,78802.09
2019-03-27T22:59:05.684Z,78806.09
2019-03-27T23:04:24.372Z,78815.08
2019-03-27T23:09:35.664Z,78831.06
2019-03-27T23:14:57.844Z,78835.06
2019-03-27T23:20:16.790Z,78835.06
2019-03-27T23:25:27.621Z,78842.05
2019-03-27T23:31:06.662Z,78850.05
2019-03-27T23:36:28.724Z,78849.05
2019-03-27T23:41:48.461Z,78853.04
2019-03-27T23:47:01.006Z,78858.03
2019-03-27T23:52:18.916Z,78868.02
2019-03-27T23:57:31.988Z,78874.02
